sensor_id;sensor_type;location;lat;lon;timestamp;pressure;altitude;pressure_sealevel;temperature;humidity
78488;BME280;67885;49.758;9.582;2024-01-10T00:02:02;100249.66;;;1.07;34.54
78488;BME280;67885;49.758;9.582;2024-01-10T00:04:29;100300.03;;;1.45;34.25
78488;BME280;67885;49.758;9.582;2024-01-10T00:06:55;100282.84;;;1.37;34.74
78488;BME280;67885;49.758;9.582;2024-01-10T00:09:22;100293.19;;;1.40;35.65
78488;BME280;67885;49.758;9.582;2024-01-10T00:11:49;100242.50;;;1.15;34.77
78488;BME280;67885;49.758;9.582;2024-01-10T00:14:15;100254.41;;;1.26;33.71
78488;BME280;67885;49.758;9.582;2024-01-10T00:16:42;100296.56;;;1.45;35.35
78488;BME280;67885;49.758;9.582;2024-01-10T00:19:10;100289.00;;;1.34;35.18
78488;BME280;67885;49.758;9.582;2024-01-10T00:21:37;100288.94;;;1.37;36.31
78488;BME280;67885;49.758;9.582;2024-01-10T00:24:04;100283.78;;;1.34;34.51
78488;BME280;67885;49.758;9.582;2024-01-10T00:26:30;100293.19;;;1.41;34.98
78488;BME280;67885;49.758;9.582;2024-01-10T00:28:56;100294.06;;;1.40;34.60
78488;BME280;67885;49.758;9.582;2024-01-10T00:31:23;100289.75;;;1.39;35.08
78488;BME280;67885;49.758;9.582;2024-01-10T00:33:50;100144.03;;;0.52;35.69
78488;BME280;67885;49.758;9.582;2024-01-10T00:36:18;100287.25;;;1.34;35.27
78488;BME280;67885;49.758;9.582;2024-01-10T00:38:44;100292.69;;;1.25;35.74
78488;BME280;67885;49.758;9.582;2024-01-10T00:41:11;100288.31;;;1.26;36.07
78488;BME280;67885;49.758;9.582;2024-01-10T00:43:38;100283.22;;;1.21;36.03
78488;BME280;67885;49.758;9.582;2024-01-10T00:46:04;100270.28;;;1.16;34.81
78488;BME280;67885;49.758;9.582;2024-01-10T00:48:31;100286.59;;;1.25;35.79
78488;BME280;67885;49.758;9.582;2024-01-10T00:50:59;100271.06;;;1.20;35.94
78488;BME280;67885;49.758;9.582;2024-01-10T00:53:27;100283.09;;;1.26;34.57
78488;BME280;67885;49.758;9.582;2024-01-10T00:55:53;100283.94;;;1.28;35.78
78488;BME280;67885;49.758;9.582;2024-01-10T00:58:20;100254.16;;;0.99;35.70
78488;BME280;67885;49.758;9.582;2024-01-10T01:00:47;100281.53;;;1.18;34.78
78488;BME280;67885;49.758;9.582;2024-01-10T01:03:13;100226.69;;;0.86;33.98
78488;BME280;67885;49.758;9.582;2024-01-10T01:05:40;100265.31;;;1.07;34.83
78488;BME280;67885;49.758;9.582;2024-01-10T01:08:06;100249.91;;;0.95;34.09
78488;BME280;67885;49.758;9.582;2024-01-10T01:10:34;100280.81;;;1.12;33.86
78488;BME280;67885;49.758;9.582;2024-01-10T01:13:01;100280.91;;;1.09;34.65
78488;BME280;67885;49.758;9.582;2024-01-10T01:15:28;100300.06;;;1.08;34.95
78488;BME280;67885;49.758;9.582;2024-01-10T01:17:55;100266.22;;;1.05;34.17
78488;BME280;67885;49.758;9.582;2024-01-10T01:20:21;100281.69;;;1.12;34.08
78488;BME280;67885;49.758;9.582;2024-01-10T01:22:48;100282.56;;;1.13;34.06
78488;BME280;67885;49.758;9.582;2024-01-10T01:25:14;100282.56;;;1.13;33.41
78488;BME280;67885;49.758;9.582;2024-01-10T01:27:42;100280.88;;;1.10;34.13
78488;BME280;67885;49.758;9.582;2024-01-10T01:30:10;100299.16;;;1.09;34.14
78488;BME280;67885;49.758;9.582;2024-01-10T01:32:37;100265.47;;;0.99;33.96
78488;BME280;67885;49.758;9.582;2024-01-10T01:35:05;100269.72;;;1.04;33.88
78488;BME280;67885;49.758;9.582;2024-01-10T01:37:31;100275.94;;;0.98;34.82
78488;BME280;67885;49.758;9.582;2024-01-10T01:39:58;100264.84;;;0.88;34.37
78488;BME280;67885;49.758;9.582;2024-01-10T01:42:25;100269.09;;;0.94;35.80
78488;BME280;67885;49.758;9.582;2024-01-10T01:44:52;100263.19;;;0.86;35.07
78488;BME280;67885;49.758;9.582;2024-01-10T01:47:19;100272.63;;;0.91;35.82
78488;BME280;67885;49.758;9.582;2024-01-10T01:49:47;100274.50;;;0.84;35.47
78488;BME280;67885;49.758;9.582;2024-01-10T01:52:14;100271.91;;;0.84;35.63
78488;BME280;67885;49.758;9.582;2024-01-10T01:54:40;100277.00;;;0.89;35.90
78488;BME280;67885;49.758;9.582;2024-01-10T01:57:07;100267.41;;;0.91;35.46
78488;BME280;67885;49.758;9.582;2024-01-10T01:59:34;100264.78;;;0.91;34.98
78488;BME280;67885;49.758;9.582;2024-01-10T02:02:04;100263.91;;;0.91;35.95
78488;BME280;67885;49.758;9.582;2024-01-10T02:04:31;100271.69;;;0.92;35.87
78488;BME280;67885;49.758;9.582;2024-01-10T02:06:58;100276.06;;;0.92;35.58
78488;BME280;67885;49.758;9.582;2024-01-10T02:09:25;100240.81;;;0.75;35.20
78488;BME280;67885;49.758;9.582;2024-01-10T02:11:52;100272.66;;;0.88;35.69
78488;BME280;67885;49.758;9.582;2024-01-10T02:14:19;100262.28;;;0.87;35.56
78488;BME280;67885;49.758;9.582;2024-01-10T02:16:46;100265.81;;;0.86;35.01
78488;BME280;67885;49.758;9.582;2024-01-10T02:19:22;100279.53;;;0.94;36.68
78488;BME280;67885;49.758;9.582;2024-01-10T02:21:49;100262.69;;;1.07;35.70
78488;BME280;67885;49.758;9.582;2024-01-10T02:24:16;100217.22;;;0.81;34.99
78488;BME280;67885;49.758;9.582;2024-01-10T02:26:44;100254.03;;;1.05;35.25
78488;BME280;67885;49.758;9.582;2024-01-10T02:29:10;100232.69;;;0.88;34.62
78488;BME280;67885;49.758;9.582;2024-01-10T02:31:37;100242.94;;;0.97;34.25
78488;BME280;67885;49.758;9.582;2024-01-10T02:34:04;100244.81;;;0.90;35.87
78488;BME280;67885;49.758;9.582;2024-01-10T02:36:30;100243.06;;;0.91;35.89
78488;BME280;67885;49.758;9.582;2024-01-10T02:38:57;100247.38;;;0.92;34.92
78488;BME280;67885;49.758;9.582;2024-01-10T02:41:23;100243.97;;;0.90;35.09
78488;BME280;67885;49.758;9.582;2024-01-10T02:43:51;100245.63;;;0.92;34.97
78488;BME280;67885;49.758;9.582;2024-01-10T02:46:18;100252.69;;;0.89;36.01
78488;BME280;67885;49.758;9.582;2024-01-10T02:48:47;100233.00;;;0.75;35.71
78488;BME280;67885;49.758;9.582;2024-01-10T02:51:14;100248.56;;;0.78;38.24
78488;BME280;67885;49.758;9.582;2024-01-10T02:53:41;100253.63;;;1.22;45.14
78488;BME280;67885;49.758;9.582;2024-01-10T02:56:07;100251.16;;;1.50;37.46
78488;BME280;67885;49.758;9.582;2024-01-10T02:58:34;100248.44;;;1.55;37.70
78488;BME280;67885;49.758;9.582;2024-01-10T03:01:02;100227.88;;;1.43;37.28
78488;BME280;67885;49.758;9.582;2024-01-10T03:03:29;100128.47;;;0.84;36.56
78488;BME280;67885;49.758;9.582;2024-01-10T03:05:55;100210.88;;;1.28;35.33
78488;BME280;67885;49.758;9.582;2024-01-10T03:08:22;100226.25;;;1.39;35.68
78488;BME280;67885;49.758;9.582;2024-01-10T03:10:48;100221.31;;;1.28;34.89
78488;BME280;67885;49.758;9.582;2024-01-10T03:13:15;100185.50;;;0.98;35.86
78488;BME280;67885;49.758;9.582;2024-01-10T03:15:42;100232.91;;;1.16;36.14
78488;BME280;67885;49.758;9.582;2024-01-10T03:18:09;100237.19;;;1.18;36.85
78488;BME280;67885;49.758;9.582;2024-01-10T03:20:36;100215.75;;;1.06;35.69
78488;BME280;67885;49.758;9.582;2024-01-10T03:23:03;100181.53;;;0.83;35.39
78488;BME280;67885;49.758;9.582;2024-01-10T03:25:30;100235.50;;;1.16;35.82
78488;BME280;67885;49.758;9.582;2024-01-10T03:27:56;100180.59;;;0.86;35.84
78488;BME280;67885;49.758;9.582;2024-01-10T03:30:23;100193.44;;;0.94;35.17
78488;BME280;67885;49.758;9.582;2024-01-10T03:32:50;100215.06;;;0.97;35.73
78488;BME280;67885;49.758;9.582;2024-01-10T03:35:17;100224.44;;;1.06;35.83
78488;BME280;67885;49.758;9.582;2024-01-10T03:37:44;100210.66;;;1.01;35.53
78488;BME280;67885;49.758;9.582;2024-01-10T03:40:11;100220.97;;;1.06;36.16
78488;BME280;67885;49.758;9.582;2024-01-10T03:42:38;100220.16;;;1.04;35.28
78488;BME280;67885;49.758;9.582;2024-01-10T03:45:05;100221.88;;;1.05;36.12
78488;BME280;67885;49.758;9.582;2024-01-10T03:47:32;100212.50;;;0.96;35.93
78488;BME280;67885;49.758;9.582;2024-01-10T03:49:58;100219.31;;;1.01;36.09
78488;BME280;67885;49.758;9.582;2024-01-10T03:52:26;100215.91;;;0.99;35.97
78488;BME280;67885;49.758;9.582;2024-01-10T03:54:53;100210.75;;;0.98;35.59
78488;BME280;67885;49.758;9.582;2024-01-10T03:57:20;100196.16;;;0.89;34.98
78488;BME280;67885;49.758;9.582;2024-01-10T03:59:47;100191.81;;;0.88;34.48
78488;BME280;67885;49.758;9.582;2024-01-10T04:02:13;100210.88;;;0.92;34.72
78488;BME280;67885;49.758;9.582;2024-01-10T04:04:40;100199.72;;;0.85;35.09
78488;BME280;67885;49.758;9.582;2024-01-10T04:07:06;100205.97;;;0.79;34.96
78488;BME280;67885;49.758;9.582;2024-01-10T04:09:35;100182.91;;;0.61;35.65
78488;BME280;67885;49.758;9.582;2024-01-10T04:12:02;100199.25;;;0.67;35.82
78488;BME280;67885;49.758;9.582;2024-01-10T04:14:29;100199.44;;;0.61;36.64
78488;BME280;67885;49.758;9.582;2024-01-10T04:16:55;100202.00;;;0.63;37.18
78488;BME280;67885;49.758;9.582;2024-01-10T04:19:22;100200.94;;;0.70;36.11
78488;BME280;67885;49.758;9.582;2024-01-10T04:21:49;100176.78;;;0.63;36.06
78488;BME280;67885;49.758;9.582;2024-01-10T04:24:15;100184.50;;;0.68;36.01
78488;BME280;67885;49.758;9.582;2024-01-10T04:26:43;100202.63;;;0.73;36.61
78488;BME280;67885;49.758;9.582;2024-01-10T04:29:10;100200.88;;;0.75;37.31
78488;BME280;67885;49.758;9.582;2024-01-10T04:31:37;100198.22;;;0.76;36.78
78488;BME280;67885;49.758;9.582;2024-01-10T04:34:04;100202.47;;;0.80;35.40
78488;BME280;67885;49.758;9.582;2024-01-10T04:36:30;100199.00;;;0.78;35.04
78488;BME280;67885;49.758;9.582;2024-01-10T04:38:57;100182.91;;;0.61;35.53
78488;BME280;67885;49.758;9.582;2024-01-10T04:41:23;100186.53;;;0.55;37.05
78488;BME280;67885;49.758;9.582;2024-01-10T04:43:52;100207.38;;;0.55;36.81
78488;BME280;67885;49.758;9.582;2024-01-10T04:46:18;100207.44;;;0.52;37.32
78488;BME280;67885;49.758;9.582;2024-01-10T04:48:45;100166.47;;;0.20;38.02
78488;BME280;67885;49.758;9.582;2024-01-10T04:51:12;100180.16;;;0.29;37.72
78488;BME280;67885;49.758;9.582;2024-01-10T04:53:40;100183.56;;;0.33;38.57
78488;BME280;67885;49.758;9.582;2024-01-10T04:56:06;100165.44;;;0.27;38.53
78488;BME280;67885;49.758;9.582;2024-01-10T04:58:33;100207.28;;;0.58;37.50
78488;BME280;67885;49.758;9.582;2024-01-10T05:01:01;100152.28;;;0.33;37.29
78488;BME280;67885;49.758;9.582;2024-01-10T05:03:28;100185.63;;;0.56;37.56
78488;BME280;67885;49.758;9.582;2024-01-10T05:05:55;100201.75;;;0.74;36.24
78488;BME280;67885;49.758;9.582;2024-01-10T05:08:21;100200.88;;;0.75;37.14
78488;BME280;67885;49.758;9.582;2024-01-10T05:10:48;100206.91;;;0.75;36.69
78488;BME280;67885;49.758;9.582;2024-01-10T05:13:14;100208.53;;;0.81;35.88
78488;BME280;67885;49.758;9.582;2024-01-10T05:15:41;100214.50;;;0.86;36.09
78488;BME280;67885;49.758;9.582;2024-01-10T05:18:09;100210.91;;;0.90;35.58
78488;BME280;67885;49.758;9.582;2024-01-10T05:20:36;100172.34;;;0.67;36.34
78488;BME280;67885;49.758;9.582;2024-01-10T05:23:02;100215.28;;;0.90;36.33
78488;BME280;67885;49.758;9.582;2024-01-10T05:25:29;100205.03;;;0.82;36.49
78488;BME280;67885;49.758;9.582;2024-01-10T05:27:56;100200.75;;;0.79;36.10
78488;BME280;67885;49.758;9.582;2024-01-10T05:30:22;100211.81;;;0.89;35.46
78488;BME280;67885;49.758;9.582;2024-01-10T05:32:49;100211.84;;;0.88;35.87
78488;BME280;67885;49.758;9.582;2024-01-10T05:35:17;100208.66;;;0.76;36.10
78488;BME280;67885;49.758;9.582;2024-01-10T05:37:43;100210.28;;;0.80;35.78
78488;BME280;67885;49.758;9.582;2024-01-10T05:40:10;100162.38;;;0.47;36.35
78488;BME280;67885;49.758;9.582;2024-01-10T05:42:37;100211.28;;;0.75;36.20
78488;BME280;67885;49.758;9.582;2024-01-10T05:45:05;100218.22;;;0.74;36.25
78488;BME280;67885;49.758;9.582;2024-01-10T05:47:32;100220.84;;;0.74;35.51
78488;BME280;67885;49.758;9.582;2024-01-10T05:49:58;100200.28;;;0.62;36.32
78488;BME280;67885;49.758;9.582;2024-01-10T05:52:26;100220.41;;;0.93;54.10
78488;BME280;67885;49.758;9.582;2024-01-10T05:54:53;100219.13;;;1.45;40.27
78488;BME280;67885;49.758;9.582;2024-01-10T05:57:20;100168.19;;;1.29;35.88
78488;BME280;67885;49.758;9.582;2024-01-10T05:59:47;100212.84;;;1.52;34.68
78488;BME280;67885;49.758;9.582;2024-01-10T06:02:13;100205.38;;;1.39;34.68
78488;BME280;67885;49.758;9.582;2024-01-10T06:04:41;100214.06;;;1.39;35.38
78488;BME280;67885;49.758;9.582;2024-01-10T06:07:08;100212.59;;;1.27;35.46
78488;BME280;67885;49.758;9.582;2024-01-10T06:09:37;100209.25;;;1.24;35.63
78488;BME280;67885;49.758;9.582;2024-01-10T06:12:06;100219.59;;;1.27;36.59
78488;BME280;67885;49.758;9.582;2024-01-10T06:14:33;100194.75;;;1.12;35.60
78488;BME280;67885;49.758;9.582;2024-01-10T06:17:00;100224.84;;;1.25;35.10
78488;BME280;67885;49.758;9.582;2024-01-10T06:19:27;100219.72;;;1.21;34.55
78488;BME280;67885;49.758;9.582;2024-01-10T06:21:53;100218.09;;;1.16;35.80
78488;BME280;67885;49.758;9.582;2024-01-10T06:24:21;100224.38;;;1.09;35.10
78488;BME280;67885;49.758;9.582;2024-01-10T06:26:49;100095.13;;;0.25;36.00
78488;BME280;67885;49.758;9.582;2024-01-10T06:29:16;100210.53;;;1.06;38.55
78488;BME280;67885;49.758;9.582;2024-01-10T06:31:42;100232.50;;;1.33;36.58
78488;BME280;67885;49.758;9.582;2024-01-10T06:34:09;100224.66;;;1.33;36.39
78488;BME280;67885;49.758;9.582;2024-01-10T06:36:36;100229.13;;;1.28;41.83
78488;BME280;67885;49.758;9.582;2024-01-10T06:39:04;100212.94;;;1.81;37.96
78488;BME280;67885;49.758;9.582;2024-01-10T06:41:30;100209.00;;;1.97;38.51
78488;BME280;67885;49.758;9.582;2024-01-10T06:43:58;100212.53;;;2.26;34.50
78488;BME280;67885;49.758;9.582;2024-01-10T06:46:28;100218.69;;;2.24;35.21
78488;BME280;67885;49.758;9.582;2024-01-10T06:48:56;100223.41;;;1.81;34.73
78488;BME280;67885;49.758;9.582;2024-01-10T06:51:23;100224.78;;;1.94;35.32
78488;BME280;67885;49.758;9.582;2024-01-10T06:53:49;100221.63;;;1.81;37.84
78488;BME280;67885;49.758;9.582;2024-01-10T06:56:16;100226.38;;;1.67;34.94
78488;BME280;67885;49.758;9.582;2024-01-10T06:58:42;100218.94;;;1.51;34.29
78488;BME280;67885;49.758;9.582;2024-01-10T07:01:14;100220.75;;;1.49;34.22
78488;BME280;67885;49.758;9.582;2024-01-10T07:03:40;100217.41;;;1.44;34.78
78488;BME280;67885;49.758;9.582;2024-01-10T07:06:08;100229.97;;;1.28;34.81
78488;BME280;67885;49.758;9.582;2024-01-10T07:08:34;100229.13;;;1.28;35.46
78488;BME280;67885;49.758;9.582;2024-01-10T07:11:01;100184.78;;;0.92;36.08
78488;BME280;67885;49.758;9.582;2024-01-10T07:13:28;100239.91;;;1.14;34.81
78488;BME280;67885;49.758;9.582;2024-01-10T07:15:54;100220.50;;;0.90;35.95
78488;BME280;67885;49.758;9.582;2024-01-10T07:18:22;100230.06;;;0.89;36.35
78488;BME280;67885;49.758;9.582;2024-01-10T07:20:49;100221.94;;;0.65;35.27
78488;BME280;67885;49.758;9.582;2024-01-10T07:23:15;100236.69;;;0.65;36.99
78488;BME280;67885;49.758;9.582;2024-01-10T07:25:42;100230.94;;;0.50;36.62
78488;BME280;67885;49.758;9.582;2024-01-10T07:28:09;100240.56;;;0.47;36.74
78488;BME280;67885;49.758;9.582;2024-01-10T07:30:35;100244.09;;;0.44;37.38
78488;BME280;67885;49.758;9.582;2024-01-10T07:33:02;100246.84;;;0.38;37.49
78488;BME280;67885;49.758;9.582;2024-01-10T07:35:30;100221.03;;;0.27;37.17
78488;BME280;67885;49.758;9.582;2024-01-10T07:37:57;100233.03;;;0.35;38.43
78488;BME280;67885;49.758;9.582;2024-01-10T07:40:23;100220.97;;;0.29;37.49
78488;BME280;67885;49.758;9.582;2024-01-10T07:42:50;100244.00;;;0.49;37.52
78488;BME280;67885;49.758;9.582;2024-01-10T07:45:17;100239.69;;;0.48;36.84
78488;BME280;67885;49.758;9.582;2024-01-10T07:47:43;100243.91;;;0.54;36.96
78488;BME280;67885;49.758;9.582;2024-01-10T07:50:12;100212.19;;;0.35;36.47
78488;BME280;67885;49.758;9.582;2024-01-10T07:52:42;100260.38;;;0.54;36.59
78488;BME280;67885;49.758;9.582;2024-01-10T07:55:09;100263.97;;;0.48;37.36
78488;BME280;67885;49.758;9.582;2024-01-10T07:57:36;100264.06;;;0.45;37.13
78488;BME280;67885;49.758;9.582;2024-01-10T08:00:03;100241.63;;;0.38;37.86
78488;BME280;67885;49.758;9.582;2024-01-10T08:02:30;100263.13;;;0.48;37.14
78488;BME280;67885;49.758;9.582;2024-01-10T08:04:59;100245.09;;;0.39;36.89
78488;BME280;67885;49.758;9.582;2024-01-10T08:07:25;100272.47;;;0.58;36.73
78488;BME280;67885;49.758;9.582;2024-01-10T08:09:53;100230.28;;;0.41;36.58
78488;BME280;67885;49.758;9.582;2024-01-10T08:12:20;100249.69;;;0.68;36.99
78488;BME280;67885;49.758;9.582;2024-01-10T08:14:47;100254.56;;;0.82;36.87
78488;BME280;67885;49.758;9.582;2024-01-10T08:17:15;100261.06;;;1.01;36.36
78488;BME280;67885;49.758;9.582;2024-01-10T08:19:42;100257.00;;;0.90;36.12
78488;BME280;67885;49.758;9.582;2024-01-10T08:22:09;100259.69;;;1.23;35.97
78488;BME280;67885;49.758;9.582;2024-01-10T08:24:35;100248.25;;;1.28;36.49
78488;BME280;67885;49.758;9.582;2024-01-10T08:27:04;100223.34;;;1.15;35.38
78488;BME280;67885;49.758;9.582;2024-01-10T08:29:30;100250.69;;;1.36;35.54
78488;BME280;67885;49.758;9.582;2024-01-10T08:31:57;100262.56;;;1.46;35.93
78488;BME280;67885;49.758;9.582;2024-01-10T08:34:24;100254.13;;;1.37;35.65
78488;BME280;67885;49.758;9.582;2024-01-10T08:36:52;100261.91;;;1.38;35.69
78488;BME280;67885;49.758;9.582;2024-01-10T08:39:19;100272.53;;;1.32;36.49
78488;BME280;67885;49.758;9.582;2024-01-10T08:41:47;100260.41;;;1.29;35.55
78488;BME280;67885;49.758;9.582;2024-01-10T08:44:15;100279.88;;;1.50;36.08
78488;BME280;67885;49.758;9.582;2024-01-10T08:46:41;100277.03;;;1.60;36.04
78488;BME280;67885;49.758;9.582;2024-01-10T08:49:08;100256.97;;;1.62;35.42
78488;BME280;67885;49.758;9.582;2024-01-10T08:51:35;100272.81;;;1.89;34.99
78488;BME280;67885;49.758;9.582;2024-01-10T08:54:01;100274.19;;;2.02;35.00
78488;BME280;67885;49.758;9.582;2024-01-10T08:56:29;100282.66;;;2.12;35.64
78488;BME280;67885;49.758;9.582;2024-01-10T08:58:55;100281.59;;;2.17;34.87
78488;BME280;67885;49.758;9.582;2024-01-10T09:01:23;100277.91;;;2.25;34.72
78488;BME280;67885;49.758;9.582;2024-01-10T09:03:50;100279.59;;;2.27;34.87
78488;BME280;67885;49.758;9.582;2024-01-10T09:06:16;100259.03;;;2.15;34.39
78488;BME280;67885;49.758;9.582;2024-01-10T09:08:43;100280.72;;;2.17;34.33
78488;BME280;67885;49.758;9.582;2024-01-10T09:11:10;100270.91;;;1.94;35.08
78488;BME280;67885;49.758;9.582;2024-01-10T09:13:36;100264.16;;;1.87;35.86
78488;BME280;67885;49.758;9.582;2024-01-10T09:16:05;100279.69;;;1.93;35.32
78488;BME280;67885;49.758;9.582;2024-01-10T09:18:33;100294.75;;;1.81;35.48
78488;BME280;67885;49.758;9.582;2024-01-10T09:21:00;100287.16;;;1.74;36.68
78488;BME280;67885;49.758;9.582;2024-01-10T09:23:26;100290.59;;;1.74;36.55
78488;BME280;67885;49.758;9.582;2024-01-10T09:25:53;100290.59;;;1.74;36.19
78488;BME280;67885;49.758;9.582;2024-01-10T09:28:20;100290.56;;;1.76;36.67
78488;BME280;67885;49.758;9.582;2024-01-10T09:30:47;100291.38;;;1.78;36.67
78488;BME280;67885;49.758;9.582;2024-01-10T09:33:14;100300.03;;;1.80;36.46
78488;BME280;67885;49.758;9.582;2024-01-10T09:35:42;100292.09;;;1.83;36.81
78488;BME280;67885;49.758;9.582;2024-01-10T09:38:08;100298.94;;;1.89;36.77
78488;BME280;67885;49.758;9.582;2024-01-10T09:40:35;100301.31;;;1.96;36.38
78488;BME280;67885;49.758;9.582;2024-01-10T09:43:04;100301.22;;;2.01;37.28
78488;BME280;67885;49.758;9.582;2024-01-10T09:45:35;100292.69;;;1.94;36.78
78488;BME280;67885;49.758;9.582;2024-01-10T09:48:03;100258.47;;;1.71;36.44
78488;BME280;67885;49.758;9.582;2024-01-10T09:50:30;100261.78;;;1.77;35.26
78488;BME280;67885;49.758;9.582;2024-01-10T09:53:05;100291.47;;;2.06;36.39
78488;BME280;67885;49.758;9.582;2024-01-10T09:55:34;100283.63;;;2.08;35.39
78488;BME280;67885;49.758;9.582;2024-01-10T09:58:04;100304.22;;;2.18;35.59
78488;BME280;67885;49.758;9.582;2024-01-10T10:00:33;100286.19;;;2.09;36.61
78488;BME280;67885;49.758;9.582;2024-01-10T10:03:02;100291.06;;;2.22;36.02
78488;BME280;67885;49.758;9.582;2024-01-10T10:05:30;100309.72;;;2.41;35.76
78488;BME280;67885;49.758;9.582;2024-01-10T10:08:01;100302.53;;;2.47;35.31
78488;BME280;67885;49.758;9.582;2024-01-10T10:10:28;100303.31;;;2.51;34.91
78488;BME280;67885;49.758;9.582;2024-01-10T10:12:55;100298.31;;;2.43;35.85
78488;BME280;67885;49.758;9.582;2024-01-10T10:15:23;100310.94;;;2.27;35.86
78488;BME280;67885;49.758;9.582;2024-01-10T10:17:52;100304.13;;;2.53;35.18
78488;BME280;67885;49.758;9.582;2024-01-10T10:20:21;100266.38;;;2.32;35.42
78488;BME280;67885;49.758;9.582;2024-01-10T10:22:59;100268.91;;;2.35;35.41
78488;BME280;67885;49.758;9.582;2024-01-10T10:25:29;100290.50;;;2.72;34.73
78488;BME280;67885;49.758;9.582;2024-01-10T10:27:57;100291.13;;;2.80;35.23
78488;BME280;67885;49.758;9.582;2024-01-10T10:30:24;100289.19;;;2.86;35.42
78488;BME280;67885;49.758;9.582;2024-01-10T10:32:50;100299.22;;;3.00;34.68
78488;BME280;67885;49.758;9.582;2024-01-10T10:35:19;100289.66;;;2.99;35.51
78488;BME280;67885;49.758;9.582;2024-01-10T10:37:47;100296.47;;;3.32;35.50
78488;BME280;67885;49.758;9.582;2024-01-10T10:40:14;100289.03;;;3.46;34.76
78488;BME280;67885;49.758;9.582;2024-01-10T10:42:45;100276.00;;;3.45;34.31
78488;BME280;67885;49.758;9.582;2024-01-10T10:45:15;100289.53;;;3.31;33.85
78488;BME280;67885;49.758;9.582;2024-01-10T10:47:44;100288.25;;;3.17;34.86
78488;BME280;67885;49.758;9.582;2024-01-10T10:50:21;100283.34;;;3.07;34.72
78488;BME280;67885;49.758;9.582;2024-01-10T10:52:49;100270.28;;;3.05;45.15
78488;BME280;67885;49.758;9.582;2024-01-10T10:55:18;100246.97;;;3.24;34.76
78488;BME280;67885;49.758;9.582;2024-01-10T10:57:47;100269.16;;;3.41;34.82
78488;BME280;67885;49.758;9.582;2024-01-10T11:00:19;100262.84;;;3.46;34.29
78488;BME280;67885;49.758;9.582;2024-01-10T11:02:47;100266.19;;;3.51;34.11
78488;BME280;67885;49.758;9.582;2024-01-10T11:05:15;100271.38;;;3.53;34.45
78488;BME280;67885;49.758;9.582;2024-01-10T11:07:43;100262.56;;;3.56;34.91
78488;BME280;67885;49.758;9.582;2024-01-10T11:10:13;100264.47;;;3.50;34.63
78488;BME280;67885;49.758;9.582;2024-01-10T11:13:00;100245.84;;;3.33;34.06
78488;BME280;67885;49.758;9.582;2024-01-10T11:15:54;100238.13;;;3.28;35.24
78488;BME280;67885;49.758;9.582;2024-01-10T11:18:43;100254.47;;;3.36;35.03
78488;BME280;67885;49.758;9.582;2024-01-10T11:21:21;100254.59;;;3.32;35.30
78488;BME280;67885;49.758;9.582;2024-01-10T11:23:52;100253.69;;;3.06;35.64
78488;BME280;67885;49.758;9.582;2024-01-10T11:26:20;100257.59;;;2.93;35.63
78488;BME280;67885;49.758;9.582;2024-01-10T11:28:50;100248.47;;;2.78;36.42
78488;BME280;67885;49.758;9.582;2024-01-10T11:31:28;100250.13;;;2.80;35.67
78488;BME280;67885;49.758;9.582;2024-01-10T11:33:56;100234.81;;;2.68;36.19
78488;BME280;67885;49.758;9.582;2024-01-10T11:36:23;100260.47;;;2.83;36.50
78488;BME280;67885;49.758;9.582;2024-01-10T11:38:54;100253.41;;;2.87;36.87
78488;BME280;67885;49.758;9.582;2024-01-10T11:41:23;100243.56;;;2.95;36.57
78488;BME280;67885;49.758;9.582;2024-01-10T11:44:29;100247.72;;;3.01;36.22
78488;BME280;67885;49.758;9.582;2024-01-10T11:46:59;100251.06;;;3.06;36.56
78488;BME280;67885;49.758;9.582;2024-01-10T11:49:26;100251.66;;;3.14;36.53
78488;BME280;67885;49.758;9.582;2024-01-10T11:51:55;100254.03;;;3.22;36.30
78488;BME280;67885;49.758;9.582;2024-01-10T11:54:42;100235.00;;;3.17;36.36
78488;BME280;67885;49.758;9.582;2024-01-10T11:57:16;100261.94;;;3.20;36.53
78488;BME280;67885;49.758;9.582;2024-01-10T11:59:48;100218.47;;;3.16;36.32
78488;BME280;67885;49.758;9.582;2024-01-10T12:02:17;100219.97;;;3.24;36.53
78488;BME280;67885;49.758;9.582;2024-01-10T12:04:45;100225.09;;;3.27;36.93
78488;BME280;67885;49.758;9.582;2024-01-10T12:07:12;100169.81;;;2.84;36.47
78488;BME280;67885;49.758;9.582;2024-01-10T12:09:39;100254.25;;;3.43;37.28
78488;BME280;67885;49.758;9.582;2024-01-10T12:12:07;100248.41;;;3.34;36.63
78488;BME280;67885;49.758;9.582;2024-01-10T12:14:34;100258.88;;;3.34;36.61
78488;BME280;67885;49.758;9.582;2024-01-10T12:17:05;100260.06;;;3.24;36.68
78488;BME280;67885;49.758;9.582;2024-01-10T12:19:33;100222.19;;;2.82;37.10
78488;BME280;67885;49.758;9.582;2024-01-10T12:22:00;100231.00;;;3.07;37.47
78488;BME280;67885;49.758;9.582;2024-01-10T12:24:27;100248.25;;;3.12;36.87
78488;BME280;67885;49.758;9.582;2024-01-10T12:26:55;100238.19;;;3.00;36.88
78488;BME280;67885;49.758;9.582;2024-01-10T12:29:22;100299.84;;;3.09;37.23
78488;BME280;67885;49.758;9.582;2024-01-10T12:31:51;100249.06;;;3.14;38.07
78488;BME280;67885;49.758;9.582;2024-01-10T12:34:19;100246.59;;;3.36;37.85
78488;BME280;67885;49.758;9.582;2024-01-10T12:36:46;100230.03;;;3.36;37.21
78488;BME280;67885;49.758;9.582;2024-01-10T12:39:13;100246.25;;;3.47;36.89
78488;BME280;67885;49.758;9.582;2024-01-10T12:41:41;100227.16;;;3.44;36.29
78488;BME280;67885;49.758;9.582;2024-01-10T12:44:07;100199.31;;;3.41;36.88
78488;BME280;67885;49.758;9.582;2024-01-10T12:46:49;100239.78;;;3.83;36.44
78488;BME280;67885;49.758;9.582;2024-01-10T12:49:16;100242.00;;;3.94;36.59
78488;BME280;67885;49.758;9.582;2024-01-10T12:51:44;100240.03;;;4.00;35.87
78488;BME280;67885;49.758;9.582;2024-01-10T12:54:11;100243.09;;;4.12;35.69
78488;BME280;67885;49.758;9.582;2024-01-10T12:56:37;100237.03;;;4.11;35.75
78488;BME280;67885;49.758;9.582;2024-01-10T12:59:04;100234.66;;;4.03;35.61
78488;BME280;67885;49.758;9.582;2024-01-10T13:01:31;100233.91;;;4.00;35.19
78488;BME280;67885;49.758;9.582;2024-01-10T13:03:57;100236.78;;;3.94;36.10